Terminal Aerodrome Forecast
Issued by NWS Wilmington, NC

Home | Current Version | Previous Version | Text Only | Print | Product List | Glossary On
Versions: 1 2 3 4 5 6 7 8 9 10 11 12 13 14 15 16 17
000
FTUS42 KILM 240525 AAB
TAFLBT
TAF AMD
KLBT 240525Z 2405/2506 07010KT 5SM BR VCSH OVC004
      TEMPO 2408/2412 2SM +SHRA
     FM241200 07008KT P6SM VCSH OVC008
      TEMPO 2413/2415 2SM +SHRA OVC005
     FM241500 09008KT 2SM +SHRA OVC008
     FM250300 04008KT 2SM +SHRA OVC003=

USA.gov is the U.S. government's official web portal to all federal, state and local government web resources and services.